Time;durP1;ratioP1;P1;durP2;ratioP2;P2;SDS_P1;SDS_P2;PMS_P1;PMS_P2;Temp;Humidity;BMP_temperature;BMP_pressure;BME280_temperature;BME280_humidity;BME280_pressure;Samples;Min_cycle;Max_cycle;Signal;HPM_P1;HPM_P2
2021/11/07 00:01:15;;;;;;;22.67;3.75;;;;;;;;;;4971658;28;20395;-74
2021/11/07 00:11:06;;;;;;;15.95;2.85;;;;;;;;;;4971567;28;20077;-74
2021/11/07 00:13:32;;;;;;;29.25;4.90;;;;;;;;;;4954390;28;20086;-74
2021/11/07 00:16:03;;;;;;;12.20;2.95;;;;;;;;;;4970879;28;20023;-74
2021/11/07 00:18:44;;;;;;;15.70;3.05;;;;;;;;;;4971835;28;20089;-74
2021/11/07 00:21:17;;;;;;;12.27;2.92;;;;;;;;;;4970039;28;20031;-74
2021/11/07 00:26:44;;;;;;;12.88;3.55;;;;;;;;;;4972709;28;20043;-74
2021/11/07 00:29:15;;;;;;;20.85;3.53;;;;;;;;;;4969881;28;20070;-74
2021/11/07 00:31:49;;;;;;;14.30;3.10;;;;;;;;;;4963897;28;20021;-74
2021/11/07 00:34:44;;;;;;;19.73;3.13;;;;;;;;;;4965096;28;20392;-74
2021/11/07 00:37:21;;;;;;;16.48;4.10;;;;;;;;;;4979868;28;20054;-74
2021/11/07 00:42:43;;;;;;;18.90;5.65;;;;;;;;;;4958829;28;20054;-74
2021/11/07 00:45:21;;;;;;;16.63;4.97;;;;;;;;;;4964957;28;20031;-74
2021/11/07 00:50:27;;;;;;;18.65;4.55;;;;;;;;;;4970007;28;20472;-74
2021/11/07 00:53:11;;;;;;;22.30;7.07;;;;;;;;;;4972614;28;20492;-74
2021/11/07 00:55:43;;;;;;;14.23;4.78;;;;;;;;;;4965084;28;20065;-74
2021/11/07 00:58:15;;;;;;;16.80;4.93;;;;;;;;;;4963955;28;20022;-74
2021/11/07 01:01:00;;;;;;;20.38;3.85;;;;;;;;;;4963293;28;20380;-74
2021/11/07 01:03:26;;;;;;;26.95;4.65;;;;;;;;;;4949750;28;20027;-74
2021/11/07 01:05:52;;;;;;;15.90;4.22;;;;;;;;;;4966702;28;20035;-74
2021/11/07 01:08:19;;;;;;;18.10;4.65;;;;;;;;;;4959912;28;20032;-74
2021/11/07 01:10:45;;;;;;;22.77;4.85;;;;;;;;;;4972486;28;20011;-74
2021/11/07 01:13:11;;;;;;;22.10;5.85;;;;;;;;;;4968759;28;20041;-74
2021/11/07 01:15:37;;;;;;;21.33;5.15;;;;;;;;;;4964180;28;20488;-74
2021/11/07 01:18:04;;;;;;;17.73;4.88;;;;;;;;;;4963798;28;20034;-74
2021/11/07 01:20:31;;;;;;;19.90;6.00;;;;;;;;;;4960160;28;20065;-74
2021/11/07 01:23:25;;;;;;;22.27;6.05;;;;;;;;;;4963178;28;20133;-74
2021/11/07 01:25:47;;;;;;;23.67;5.40;;;;;;;;;;4965964;28;20035;-74
2021/11/07 01:28:14;;;;;;;18.55;5.55;;;;;;;;;;4964097;28;20423;-74
2021/11/07 01:30:49;;;;;;;14.52;4.50;;;;;;;;;;4972350;28;20022;-74
2021/11/07 01:33:20;;;;;;;17.80;4.75;;;;;;;;;;4961389;28;20062;-74
2021/11/07 01:36:18;;;;;;;15.60;4.65;;;;;;;;;;4963725;28;20027;-74
2021/11/07 01:38:55;;;;;;;17.77;5.53;;;;;;;;;;4965994;28;20047;-74
2021/11/07 01:41:42;;;;;;;16.23;5.90;;;;;;;;;;4963164;28;20026;-74
2021/11/07 01:44:08;;;;;;;21.42;5.65;;;;;;;;;;4960837;28;20443;-74
2021/11/07 01:46:37;;;;;;;29.45;7.50;;;;;;;;;;4960939;28;20031;-74
2021/11/07 01:49:22;;;;;;;10.77;5.07;;;;;;;;;;4979883;28;20029;-74
2021/11/07 01:51:52;;;;;;;19.15;8.20;;;;;;;;;;4956920;28;20024;-74
2021/11/07 01:54:48;;;;;;;18.60;5.78;;;;;;;;;;4961683;28;20508;-74
2021/11/07 01:57:18;;;;;;;19.77;5.05;;;;;;;;;;4962263;28;20028;-74
2021/11/07 01:59:50;;;;;;;24.73;6.30;;;;;;;;;;4963347;28;20493;-74
2021/11/07 02:02:17;;;;;;;18.90;5.97;;;;;;;;;;4963314;28;20022;-74
2021/11/07 02:04:43;;;;;;;15.88;4.57;;;;;;;;;;4960296;28;20023;-74
2021/11/07 02:07:10;;;;;;;20.33;5.38;;;;;;;;;;4961092;28;20050;-74
2021/11/07 02:09:36;;;;;;;15.15;5.13;;;;;;;;;;4962823;28;20055;-74
2021/11/07 02:12:03;;;;;;;11.93;3.75;;;;;;;;;;4962079;28;20023;-74
2021/11/07 02:14:29;;;;;;;9.93;4.35;;;;;;;;;;4962659;28;20018;-74
2021/11/07 02:16:55;;;;;;;17.38;4.75;;;;;;;;;;4966317;28;20429;-74
2021/11/07 02:19:21;;;;;;;14.48;5.78;;;;;;;;;;4969823;28;20027;-74
2021/11/07 02:21:48;;;;;;;18.17;4.22;;;;;;;;;;4979374;28;20027;-74
2021/11/07 02:24:18;;;;;;;16.13;5.03;;;;;;;;;;4971469;28;20064;-74
2021/11/07 02:26:45;;;;;;;17.30;4.50;;;;;;;;;;4971329;28;20102;-74
2021/11/07 02:29:11;;;;;;;26.83;5.07;;;;;;;;;;4960122;28;20039;-74
2021/11/07 02:31:37;;;;;;;11.18;3.90;;;;;;;;;;4957659;28;20029;-74
2021/11/07 02:34:03;;;;;;;17.20;4.10;;;;;;;;;;4971416;28;20030;-74
2021/11/07 02:36:29;;;;;;;14.05;3.40;;;;;;;;;;4959134;28;20035;-75
2021/11/07 02:38:55;;;;;;;15.93;4.68;;;;;;;;;;4967568;28;20037;-74
2021/11/07 02:41:21;;;;;;;15.25;3.40;;;;;;;;;;4971667;28;20031;-74
2021/11/07 02:43:49;;;;;;;10.40;2.80;;;;;;;;;;4965015;28;20544;-74
2021/11/07 02:46:17;;;;;;;13.25;3.78;;;;;;;;;;4959786;28;20555;-74
2021/11/07 02:48:50;;;;;;;22.60;2.97;;;;;;;;;;4953708;28;20015;-74
2021/11/07 02:51:17;;;;;;;14.00;2.60;;;;;;;;;;4963683;28;20019;-74
2021/11/07 02:53:43;;;;;;;13.18;2.63;;;;;;;;;;4979272;28;20428;-74
2021/11/07 02:56:10;;;;;;;15.23;2.83;;;;;;;;;;4971862;28;20038;-74
2021/11/07 02:58:37;;;;;;;19.20;3.33;;;;;;;;;;4956742;28;20035;-74
2021/11/07 03:01:03;;;;;;;18.75;3.53;;;;;;;;;;4980330;28;20027;-74
2021/11/07 03:03:29;;;;;;;18.67;2.72;;;;;;;;;;4970617;28;20030;-74
2021/11/07 03:05:55;;;;;;;23.67;3.38;;;;;;;;;;4959853;28;20026;-74
2021/11/07 03:08:22;;;;;;;19.48;2.72;;;;;;;;;;4964870;28;20027;-74
2021/11/07 03:10:48;;;;;;;13.30;3.25;;;;;;;;;;4957191;28;20030;-74
2021/11/07 03:13:15;;;;;;;23.95;4.15;;;;;;;;;;4964812;28;20026;-74
2021/11/07 03:15:41;;;;;;;12.38;2.65;;;;;;;;;;4961719;28;20034;-74
2021/11/07 03:18:08;;;;;;;20.15;3.13;;;;;;;;;;4951544;28;20027;-75
2021/11/07 03:20:34;;;;;;;17.55;2.13;;;;;;;;;;4957452;28;20457;-74
2021/11/07 03:23:01;;;;;;;15.65;2.65;;;;;;;;;;4961515;28;20563;-74
2021/11/07 03:25:27;;;;;;;10.07;2.10;;;;;;;;;;4969266;28;20070;-74
2021/11/07 03:27:54;;;;;;;14.63;2.45;;;;;;;;;;4960001;28;20039;-74
2021/11/07 03:30:37;;;;;;;20.55;2.58;;;;;;;;;;4960110;28;20106;-74
2021/11/07 03:33:40;;;;;;;11.50;1.92;;;;;;;;;;4959659;28;20488;-75
2021/11/07 03:35:57;;;;;;;13.05;2.60;;;;;;;;;;4959069;28;20027;-74
2021/11/07 03:38:23;;;;;;;11.00;2.42;;;;;;;;;;4962371;28;20020;-74
2021/11/07 03:40:50;;;;;;;14.95;1.90;;;;;;;;;;4970231;28;20030;-74
2021/11/07 03:43:16;;;;;;;10.85;1.63;;;;;;;;;;4967070;28;20435;-74
2021/11/07 03:45:42;;;;;;;15.90;1.80;;;;;;;;;;4971003;28;20039;-74
2021/11/07 03:48:08;;;;;;;11.07;1.70;;;;;;;;;;4965739;28;20499;-74
2021/11/07 03:50:34;;;;;;;14.30;2.47;;;;;;;;;;4959008;28;20027;-74
2021/11/07 03:53:00;;;;;;;11.05;1.63;;;;;;;;;;4969502;28;20027;-75
2021/11/07 03:55:27;;;;;;;14.00;3.78;;;;;;;;;;4961169;28;20116;-75
2021/11/07 03:57:53;;;;;;;10.25;2.00;;;;;;;;;;4972156;28;20031;-75
2021/11/07 04:00:20;;;;;;;16.98;1.85;;;;;;;;;;4963603;28;20027;-75
2021/11/07 04:02:46;;;;;;;12.90;2.25;;;;;;;;;;4961772;28;20384;-74
2021/11/07 04:05:12;;;;;;;11.50;1.40;;;;;;;;;;4965438;28;20038;-74
2021/11/07 04:07:39;;;;;;;10.30;1.67;;;;;;;;;;4962163;28;20389;-74
2021/11/07 04:10:06;;;;;;;7.85;1.85;;;;;;;;;;4971218;28;20102;-74
2021/11/07 04:12:32;;;;;;;21.00;4.90;;;;;;;;;;4962475;28;20034;-74
2021/11/07 04:14:58;;;;;;;14.48;1.90;;;;;;;;;;4970679;28;20019;-74
2021/11/07 04:17:24;;;;;;;12.45;3.25;;;;;;;;;;4969712;28;20035;-74
2021/11/07 04:19:50;;;;;;;13.35;2.17;;;;;;;;;;4964822;28;20034;-74
2021/11/07 04:22:16;;;;;;;9.38;1.83;;;;;;;;;;4960723;28;20031;-75
2021/11/07 04:24:42;;;;;;;14.82;2.40;;;;;;;;;;4961863;28;20385;-74
2021/11/07 04:27:08;;;;;;;8.90;1.77;;;;;;;;;;4967738;28;20034;-75
2021/11/07 04:29:35;;;;;;;13.57;2.00;;;;;;;;;;4968441;28;20038;-74
2021/11/07 04:32:01;;;;;;;16.63;1.95;;;;;;;;;;4970094;28;20027;-75
2021/11/07 04:34:27;;;;;;;10.80;1.92;;;;;;;;;;4961370;28;20055;-75
2021/11/07 04:36:53;;;;;;;14.63;2.67;;;;;;;;;;4968845;28;20081;-74
2021/11/07 04:39:20;;;;;;;14.23;3.33;;;;;;;;;;4965263;28;20065;-74
2021/11/07 04:41:48;;;;;;;10.02;1.58;;;;;;;;;;4961115;28;20037;-74
2021/11/07 04:44:14;;;;;;;14.05;2.22;;;;;;;;;;4971220;28;20178;-74
2021/11/07 04:46:40;;;;;;;5.72;1.65;;;;;;;;;;4975522;28;20523;-75
2021/11/07 04:49:06;;;;;;;11.05;1.38;;;;;;;;;;4969910;28;20027;-74
2021/11/07 04:51:32;;;;;;;11.43;1.92;;;;;;;;;;4967163;28;20029;-74
2021/11/07 04:53:58;;;;;;;9.82;2.20;;;;;;;;;;4955329;28;20023;-74
2021/11/07 04:56:24;;;;;;;9.93;1.70;;;;;;;;;;4964474;28;20587;-74
2021/11/07 04:58:50;;;;;;;13.90;2.20;;;;;;;;;;4967766;28;20042;-74
2021/11/07 05:01:17;;;;;;;9.15;1.92;;;;;;;;;;4961750;28;20030;-74
2021/11/07 05:03:43;;;;;;;10.23;2.08;;;;;;;;;;4962687;28;20130;-75
2021/11/07 05:06:09;;;;;;;13.85;1.92;;;;;;;;;;4969439;28;20034;-75
2021/11/07 05:08:35;;;;;;;11.98;2.95;;;;;;;;;;4965137;28;20031;-75
2021/11/07 05:11:00;;;;;;;11.93;2.63;;;;;;;;;;4953901;28;20511;-75
2021/11/07 05:13:27;;;;;;;14.15;2.40;;;;;;;;;;4971555;28;20372;-75
2021/11/07 05:15:53;;;;;;;17.92;2.15;;;;;;;;;;4970692;28;20100;-75
2021/11/07 05:18:19;;;;;;;11.63;3.03;;;;;;;;;;4962818;28;20484;-74
2021/11/07 05:20:46;;;;;;;10.57;1.73;;;;;;;;;;4956080;28;20034;-74
2021/11/07 05:23:12;;;;;;;11.57;2.50;;;;;;;;;;4962357;28;20037;-75
2021/11/07 05:25:38;;;;;;;16.88;2.55;;;;;;;;;;4959510;28;20050;-74
2021/11/07 05:28:05;;;;;;;13.98;2.78;;;;;;;;;;4960551;28;20046;-74
2021/11/07 05:30:31;;;;;;;17.65;2.42;;;;;;;;;;4969527;28;20027;-74
2021/11/07 05:32:57;;;;;;;13.25;2.53;;;;;;;;;;4954441;28;20027;-74
2021/11/07 05:35:23;;;;;;;8.68;1.88;;;;;;;;;;4967943;28;20029;-74
2021/11/07 05:37:50;;;;;;;11.95;2.80;;;;;;;;;;4971980;28;20134;-74
2021/11/07 05:40:17;;;;;;;18.00;2.72;;;;;;;;;;4967227;28;20043;-74
2021/11/07 05:42:43;;;;;;;11.57;2.03;;;;;;;;;;4960400;28;20061;-74
2021/11/07 05:45:09;;;;;;;9.82;1.63;;;;;;;;;;4964104;28;20460;-75
2021/11/07 05:47:36;;;;;;;12.88;2.22;;;;;;;;;;4971612;28;20031;-74
2021/11/07 05:50:02;;;;;;;20.92;3.90;;;;;;;;;;4971258;28;20031;-74
2021/11/07 05:52:29;;;;;;;20.55;2.42;;;;;;;;;;4975745;28;20030;-74
2021/11/07 05:54:55;;;;;;;16.63;4.35;;;;;;;;;;4971001;28;20019;-74
2021/11/07 05:57:21;;;;;;;17.10;2.58;;;;;;;;;;4982559;28;20030;-73
2021/11/07 05:59:48;;;;;;;12.23;2.70;;;;;;;;;;4965021;28;20110;-74
2021/11/07 06:02:14;;;;;;;19.95;3.05;;;;;;;;;;4964101;28;20031;-74
2021/11/07 06:04:40;;;;;;;15.57;2.13;;;;;;;;;;4971158;28;20026;-74
2021/11/07 06:07:06;;;;;;;19.88;2.30;;;;;;;;;;4962897;28;20452;-74
2021/11/07 06:09:32;;;;;;;18.65;2.50;;;;;;;;;;4980626;28;20086;-74
2021/11/07 06:11:58;;;;;;;11.68;1.77;;;;;;;;;;4962297;28;20023;-74
2021/11/07 06:14:24;;;;;;;14.93;2.42;;;;;;;;;;4971122;28;20089;-74
2021/11/07 06:16:50;;;;;;;17.40;2.50;;;;;;;;;;4965928;28;20037;-75
2021/11/07 06:19:16;;;;;;;16.35;2.60;;;;;;;;;;4960314;28;20023;-74
2021/11/07 06:21:42;;;;;;;10.90;1.95;;;;;;;;;;4963880;28;20027;-73
2021/11/07 06:24:11;;;;;;;11.88;2.22;;;;;;;;;;4968602;28;20025;-74
2021/11/07 06:26:37;;;;;;;11.93;2.13;;;;;;;;;;4965533;28;20027;-74
2021/11/07 06:29:04;;;;;;;20.88;3.65;;;;;;;;;;4957586;28;20290;-74
2021/11/07 06:31:30;;;;;;;13.80;1.73;;;;;;;;;;4966191;28;20022;-74
2021/11/07 06:33:56;;;;;;;13.00;2.38;;;;;;;;;;4964214;28;20023;-74
2021/11/07 06:36:22;;;;;;;14.65;2.22;;;;;;;;;;4959913;28;20026;-74
2021/11/07 06:38:48;;;;;;;21.75;3.85;;;;;;;;;;4965540;28;20027;-74
2021/11/07 06:41:14;;;;;;;29.02;6.22;;;;;;;;;;4959507;28;20066;-73
2021/11/07 06:43:40;;;;;;;17.30;2.90;;;;;;;;;;4959532;28;20041;-74
2021/11/07 06:46:06;;;;;;;15.45;3.65;;;;;;;;;;4950623;28;20452;-74
2021/11/07 06:48:34;;;;;;;17.23;2.63;;;;;;;;;;4959512;28;20019;-74
2021/11/07 06:51:00;;;;;;;11.88;2.38;;;;;;;;;;4962012;28;20022;-74
2021/11/07 06:53:27;;;;;;;19.60;4.78;;;;;;;;;;4977244;28;20027;-74
2021/11/07 06:55:54;;;;;;;16.30;2.53;;;;;;;;;;4962364;28;20026;-74
2021/11/07 06:58:20;;;;;;;10.80;2.70;;;;;;;;;;4961671;28;20027;-74
2021/11/07 07:00:46;;;;;;;11.38;2.28;;;;;;;;;;4970732;28;20119;-74
2021/11/07 07:03:12;;;;;;;14.40;2.55;;;;;;;;;;4962506;28;20027;-74
2021/11/07 07:05:38;;;;;;;16.50;5.43;;;;;;;;;;4968462;28;20033;-74
2021/11/07 07:08:15;;;;;;;10.77;1.77;;;;;;;;;;4966108;28;20035;-74
2021/11/07 07:10:50;;;;;;;14.02;2.80;;;;;;;;;;4970653;28;20539;-74
2021/11/07 07:13:23;;;;;;;11.15;1.95;;;;;;;;;;4961966;28;20039;-74
2021/11/07 07:16:01;;;;;;;17.98;4.35;;;;;;;;;;4951171;28;20042;-74
2021/11/07 07:21:45;;;;;;;18.20;2.40;;;;;;;;;;4912548;29;20043;-74
2021/11/07 07:29:54;;;;;;;13.13;1.95;;;;;;;;;;4969960;28;20151;-74
2021/11/07 07:34:55;;;;;;;15.07;2.28;;;;;;;;;;4966021;28;20031;-74
2021/11/07 07:37:22;;;;;;;13.40;1.77;;;;;;;;;;4973039;28;20476;-74
2021/11/07 07:39:48;;;;;;;24.77;4.70;;;;;;;;;;4967167;28;20035;-74
2021/11/07 07:42:14;;;;;;;19.42;2.28;;;;;;;;;;4962239;28;20030;-74
2021/11/07 07:44:40;;;;;;;16.20;2.53;;;;;;;;;;4956604;28;20046;-74
2021/11/07 07:47:07;;;;;;;11.10;2.17;;;;;;;;;;5004409;23;20074;-71
2021/11/07 07:49:33;;;;;;;13.82;1.92;;;;;;;;;;4973142;28;20035;-71
2021/11/07 07:51:59;;;;;;;14.40;2.17;;;;;;;;;;4972700;28;20381;-71
2021/11/07 07:54:25;;;;;;;16.98;2.60;;;;;;;;;;4973932;28;20443;-70
2021/11/07 07:56:55;;;;;;;13.10;2.00;;;;;;;;;;4961468;28;20409;-71
2021/11/07 07:59:20;;;;;;;12.30;2.53;;;;;;;;;;4962222;28;20403;-71
2021/11/07 08:01:46;;;;;;;8.07;2.05;;;;;;;;;;4966517;28;20113;-70
2021/11/07 08:04:12;;;;;;;14.57;2.60;;;;;;;;;;4964031;28;20062;-71
2021/11/07 08:06:38;;;;;;;12.65;1.90;;;;;;;;;;4966008;28;20038;-71
2021/11/07 08:09:04;;;;;;;14.73;1.73;;;;;;;;;;4958854;28;20032;-71
2021/11/07 08:11:31;;;;;;;14.88;2.33;;;;;;;;;;4963226;28;20019;-71
2021/11/07 08:13:57;;;;;;;16.13;2.13;;;;;;;;;;4957110;28;20023;-71
2021/11/07 08:16:26;;;;;;;19.75;2.35;;;;;;;;;;4966909;28;20103;-70
2021/11/07 08:18:53;;;;;;;15.23;2.63;;;;;;;;;;4961598;28;20027;-71
2021/11/07 08:21:19;;;;;;;12.57;3.20;;;;;;;;;;4953536;28;20035;-71
2021/11/07 08:23:53;;;;;;;10.95;1.75;;;;;;;;;;4956847;28;20089;-71
2021/11/07 08:26:19;;;;;;;16.75;2.58;;;;;;;;;;4961161;28;20023;-71
2021/11/07 08:28:45;;;;;;;18.08;2.53;;;;;;;;;;4971790;28;20095;-71
2021/11/07 08:31:20;;;;;;;13.52;2.13;;;;;;;;;;4961587;28;20109;-71
2021/11/07 08:33:46;;;;;;;9.00;1.67;;;;;;;;;;4957016;28;20083;-71
2021/11/07 08:36:18;;;;;;;12.77;2.10;;;;;;;;;;4959557;28;20440;-70
2021/11/07 08:38:49;;;;;;;12.52;1.58;;;;;;;;;;4960808;28;20491;-71
2021/11/07 08:41:16;;;;;;;7.75;1.67;;;;;;;;;;4964520;28;20024;-71
2021/11/07 09:00:17;;;;;;;8.73;1.92;;;;;;;;;;4958471;28;20042;-70
2021/11/07 09:08:17;;;;;;;9.70;1.70;;;;;;;;;;4946683;28;20522;-72
2021/11/07 09:10:44;;;;;;;14.07;2.17;;;;;;;;;;4953714;28;20523;-72
2021/11/07 09:13:11;;;;;;;11.18;2.20;;;;;;;;;;4958645;28;20019;-72
2021/11/07 09:15:40;;;;;;;17.75;2.80;;;;;;;;;;4958355;28;20051;-69
2021/11/07 09:18:06;;;;;;;16.15;3.00;;;;;;;;;;4954873;28;20065;-72
2021/11/07 09:25:48;;;;;;;14.18;2.05;;;;;;;;;;4961349;28;20385;-70
2021/11/07 09:30:50;;;;;;;11.98;2.55;;;;;;;;;;4958267;28;20038;-70
2021/11/07 09:36:24;;;;;;;16.02;1.77;;;;;;;;;;4926107;29;20074;-70
2021/11/07 09:39:34;;;;;;;10.30;1.77;;;;;;;;;;4928594;29;20619;-70
2021/11/07 09:44:16;;;;;;;11.15;2.10;;;;;;;;;;4959200;28;20122;-70
2021/11/07 09:46:48;;;;;;;11.35;2.30;;;;;;;;;;4959123;28;20026;-71
2021/11/07 09:49:22;;;;;;;7.75;1.90;;;;;;;;;;4957831;28;20023;-71
2021/11/07 09:51:55;;;;;;;13.77;1.92;;;;;;;;;;4951385;28;20102;-70
2021/11/07 09:54:21;;;;;;;13.35;1.80;;;;;;;;;;4953281;28;20563;-70
2021/11/07 09:56:51;;;;;;;16.30;3.03;;;;;;;;;;4954540;28;20073;-70
2021/11/07 09:59:18;;;;;;;12.73;2.42;;;;;;;;;;4952840;28;20471;-70
2021/11/07 10:01:44;;;;;;;10.73;2.30;;;;;;;;;;4951956;28;20034;-70
2021/11/07 10:04:11;;;;;;;14.68;2.38;;;;;;;;;;4960734;28;20520;-70
2021/11/07 10:06:44;;;;;;;10.18;1.98;;;;;;;;;;4954659;28;20023;-70
2021/11/07 10:09:10;;;;;;;10.10;2.08;;;;;;;;;;4954808;28;20027;-70
2021/11/07 10:11:41;;;;;;;11.80;2.28;;;;;;;;;;4953043;28;20031;-70
2021/11/07 10:14:17;;;;;;;12.57;2.10;;;;;;;;;;4954943;28;20024;-71
2021/11/07 10:16:47;;;;;;;12.60;1.92;;;;;;;;;;4959825;28;20106;-69
2021/11/07 10:19:30;;;;;;;17.10;2.90;;;;;;;;;;4967433;28;20027;-71
2021/11/07 10:21:57;;;;;;;14.95;2.17;;;;;;;;;;4952252;28;20058;-70
2021/11/07 10:24:29;;;;;;;16.10;2.70;;;;;;;;;;4954284;28;20112;-71
2021/11/07 10:27:05;;;;;;;16.58;3.33;;;;;;;;;;4952088;28;20062;-70
2021/11/07 10:29:40;;;;;;;10.85;2.13;;;;;;;;;;4952537;28;20123;-70
2021/11/07 10:45:27;;;;;;;19.25;2.33;;;;;;;;;;4954966;28;20043;-70
2021/11/07 10:48:18;;;;;;;12.40;2.17;;;;;;;;;;4960350;28;20110;-70
2021/11/07 10:53:30;;;;;;;15.35;2.30;;;;;;;;;;4964373;28;20396;-70
2021/11/07 10:56:02;;;;;;;12.05;3.00;;;;;;;;;;4964885;28;20015;-69
2021/11/07 10:58:30;;;;;;;12.90;2.33;;;;;;;;;;4961846;28;20110;-70
2021/11/07 11:00:57;;;;;;;11.52;2.95;;;;;;;;;;4967146;28;20082;-70
2021/11/07 11:03:24;;;;;;;15.75;2.97;;;;;;;;;;4966852;28;20027;-70
2021/11/07 11:06:04;;;;;;;16.10;2.85;;;;;;;;;;4956726;28;20098;-70
2021/11/07 11:08:38;;;;;;;11.05;2.50;;;;;;;;;;4954783;28;20027;-71
2021/11/07 11:11:41;;;;;;;13.65;2.63;;;;;;;;;;4954314;28;20114;-70
2021/11/07 11:21:47;;;;;;;15.38;2.67;;;;;;;;;;4957374;28;20448;-70
2021/11/07 11:27:30;;;;;;;16.48;2.40;;;;;;;;;;4957299;28;20042;-71
2021/11/07 11:35:10;;;;;;;14.15;2.30;;;;;;;;;;4960613;28;20524;-71
2021/11/07 11:37:57;;;;;;;22.50;3.40;;;;;;;;;;4969123;28;20100;-71
2021/11/07 11:42:56;;;;;;;16.20;2.47;;;;;;;;;;4968118;28;20039;-71
2021/11/07 11:45:25;;;;;;;19.17;3.83;;;;;;;;;;4968924;28;20019;-71
2021/11/07 11:58:22;;;;;;;16.30;3.88;;;;;;;;;;4965210;28;20404;-70
2021/11/07 12:01:02;;;;;;;15.55;2.58;;;;;;;;;;4977032;28;20031;-70
2021/11/07 12:06:14;;;;;;;;;;;;;;;;;;4957743;28;20039;-72
2021/11/07 12:09:03;;;;;;;14.10;2.60;;;;;;;;;;4957724;28;20260;-71
2021/11/07 12:14:49;;;;;;;22.33;3.92;;;;;;;;;;4959461;28;20035;-71
2021/11/07 12:16:58;;;;;;;16.50;3.15;;;;;;;;;;4957227;28;20120;-71
2021/11/07 12:19:41;;;;;;;14.77;3.58;;;;;;;;;;4955584;28;20019;-71
2021/11/07 12:22:09;;;;;;;23.42;3.55;;;;;;;;;;4959390;28;20477;-70
2021/11/07 12:24:58;;;;;;;22.42;3.67;;;;;;;;;;4955081;28;20412;-71
2021/11/07 12:27:25;;;;;;;13.27;3.70;;;;;;;;;;4957468;28;20065;-71
2021/11/07 12:29:56;;;;;;;17.33;3.70;;;;;;;;;;4956024;28;20030;-69
2021/11/07 12:32:38;;;;;;;20.63;3.25;;;;;;;;;;4955217;28;20429;-70
2021/11/07 12:35:19;;;;;;;21.55;3.30;;;;;;;;;;4959764;28;20504;-71
2021/11/07 12:40:48;;;;;;;24.83;4.85;;;;;;;;;;4955667;28;20037;-70
2021/11/07 12:43:20;;;;;;;23.13;4.00;;;;;;;;;;4974531;28;20035;-70
2021/11/07 12:45:48;;;;;;;22.70;6.15;;;;;;;;;;4974386;28;20049;-70
2021/11/07 12:48:32;;;;;;;22.08;4.10;;;;;;;;;;4956415;28;20377;-70
2021/11/07 12:51:00;;;;;;;27.95;4.90;;;;;;;;;;4955036;28;20069;-71
2021/11/07 12:53:28;;;;;;;21.05;4.13;;;;;;;;;;4958416;28;20034;-71
2021/11/07 12:55:54;;;;;;;23.15;5.15;;;;;;;;;;4954054;28;20031;-70
2021/11/07 12:58:20;;;;;;;21.23;3.22;;;;;;;;;;4952978;28;20027;-70
2021/11/07 13:00:48;;;;;;;24.27;2.97;;;;;;;;;;4970312;28;20027;-70
2021/11/07 13:03:16;;;;;;;24.08;3.72;;;;;;;;;;4964236;28;20365;-70
2021/11/07 13:05:43;;;;;;;19.02;4.47;;;;;;;;;;4954801;28;20058;-71
2021/11/07 13:08:17;;;;;;;20.77;3.20;;;;;;;;;;4970827;28;20023;-71
2021/11/07 13:11:13;;;;;;;24.45;4.47;;;;;;;;;;4959843;28;20026;-70
2021/11/07 13:13:45;;;;;;;20.08;4.22;;;;;;;;;;4952361;28;20027;-70
2021/11/07 13:27:19;;;;;;;15.43;3.42;;;;;;;;;;4955009;28;20127;-70
2021/11/07 13:32:35;;;;;;;17.77;2.30;;;;;;;;;;4952607;28;20031;-70
2021/11/07 13:35:05;;;;;;;15.00;2.65;;;;;;;;;;4952252;28;20151;-70
2021/11/07 13:37:39;;;;;;;17.77;3.72;;;;;;;;;;4971965;28;20086;-71
2021/11/07 13:40:11;;;;;;;18.75;4.47;;;;;;;;;;4954482;28;20118;-70
2021/11/07 13:42:38;;;;;;;24.20;3.58;;;;;;;;;;4956763;28;20392;-70
2021/11/07 13:45:07;;;;;;;17.95;2.95;;;;;;;;;;4956919;28;20043;-71
2021/11/07 13:47:34;;;;;;;23.08;4.22;;;;;;;;;;4950365;28;20424;-70
2021/11/07 13:50:03;;;;;;;16.27;3.35;;;;;;;;;;5027115;23;20131;-73
2021/11/07 13:52:30;;;;;;;17.92;3.10;;;;;;;;;;5023413;28;20034;-74
2021/11/07 13:54:56;;;;;;;13.82;3.92;;;;;;;;;;5025243;28;20104;-73
2021/11/07 13:57:30;;;;;;;21.63;3.25;;;;;;;;;;5027200;28;20068;-73
2021/11/07 13:59:56;;;;;;;24.48;3.17;;;;;;;;;;5027823;28;20109;-73
2021/11/07 14:02:24;;;;;;;13.90;2.75;;;;;;;;;;5026422;28;20029;-73
2021/11/07 14:04:51;;;;;;;16.27;3.42;;;;;;;;;;5026588;28;20490;-73
2021/11/07 14:07:22;;;;;;;16.85;3.25;;;;;;;;;;5027937;28;20095;-73
2021/11/07 14:09:58;;;;;;;18.63;3.60;;;;;;;;;;5028168;28;20024;-73
2021/11/07 14:12:43;;;;;;;19.80;4.15;;;;;;;;;;5040298;28;20033;-73
2021/11/07 14:15:22;;;;;;;20.50;4.00;;;;;;;;;;5027376;28;20033;-73
2021/11/07 14:17:50;;;;;;;15.65;2.50;;;;;;;;;;5025255;28;20497;-73
2021/11/07 14:20:33;;;;;;;15.32;3.20;;;;;;;;;;5024535;28;20024;-73
2021/11/07 14:23:15;;;;;;;19.35;3.53;;;;;;;;;;5026065;28;20406;-73
2021/11/07 14:25:49;;;;;;;21.05;3.53;;;;;;;;;;5027538;28;20052;-73
2021/11/07 14:28:24;;;;;;;19.42;4.38;;;;;;;;;;5023608;28;20029;-73
2021/11/07 14:30:51;;;;;;;17.67;4.25;;;;;;;;;;5024881;28;20021;-73
2021/11/07 14:33:26;;;;;;;20.20;3.60;;;;;;;;;;5025486;28;20079;-73
2021/11/07 14:35:56;;;;;;;19.55;4.18;;;;;;;;;;5027549;28;20466;-73
2021/11/07 14:38:31;;;;;;;22.45;3.60;;;;;;;;;;5028848;28;20100;-73
2021/11/07 14:41:10;;;;;;;27.92;3.38;;;;;;;;;;5028093;28;20021;-73
2021/11/07 14:43:45;;;;;;;23.13;3.38;;;;;;;;;;5027777;28;20481;-73
2021/11/07 14:46:27;;;;;;;21.25;4.72;;;;;;;;;;5025544;28;20022;-73
2021/11/07 14:49:06;;;;;;;18.08;3.65;;;;;;;;;;5027043;28;20030;-73
2021/11/07 14:51:51;;;;;;;13.57;2.88;;;;;;;;;;5026126;28;20029;-73
2021/11/07 14:54:59;;;;;;;12.40;1.90;;;;;;;;;;5026547;28;20021;-73
2021/11/07 14:57:33;;;;;;;20.02;4.20;;;;;;;;;;5021595;28;20037;-73
2021/11/07 15:00:08;;;;;;;15.45;2.47;;;;;;;;;;5026531;28;20478;-73
2021/11/07 15:05:19;;;;;;;13.73;2.65;;;;;;;;;;5025395;28;20041;-73
2021/11/07 15:07:57;;;;;;;15.88;2.75;;;;;;;;;;5033753;28;20022;-73
2021/11/07 15:10:40;;;;;;;17.65;2.30;;;;;;;;;;5030944;28;20021;-73
2021/11/07 15:16:08;;;;;;;10.68;1.55;;;;;;;;;;5031528;28;20026;-73
2021/11/07 15:19:00;;;;;;;15.98;2.25;;;;;;;;;;5028656;28;20025;-72
2021/11/07 15:21:39;;;;;;;15.30;1.65;;;;;;;;;;5027965;28;20347;-73
2021/11/07 15:24:54;;;;;;;14.38;2.28;;;;;;;;;;5024165;28;20064;-74
2021/11/07 15:27:28;;;;;;;12.57;2.38;;;;;;;;;;5015438;28;20034;-75
2021/11/07 15:30:05;;;;;;;8.90;1.50;;;;;;;;;;5017219;28;20018;-75
2021/11/07 15:32:35;;;;;;;16.50;2.60;;;;;;;;;;5025289;28;20028;-74
2021/11/07 15:35:02;;;;;;;14.18;3.22;;;;;;;;;;5023070;28;20022;-74
2021/11/07 15:37:30;;;;;;;15.30;2.22;;;;;;;;;;5026841;28;20025;-74
2021/11/07 15:39:57;;;;;;;14.95;2.38;;;;;;;;;;5026514;28;20038;-74
2021/11/07 15:42:28;;;;;;;21.70;3.92;;;;;;;;;;5030926;28;20029;-74
2021/11/07 15:45:01;;;;;;;18.92;2.63;;;;;;;;;;5031222;28;20068;-74
2021/11/07 15:47:31;;;;;;;18.42;2.58;;;;;;;;;;5031089;28;20037;-73
2021/11/07 15:50:09;;;;;;;11.90;2.53;;;;;;;;;;5031673;28;20026;-75
2021/11/07 15:55:10;;;;;;;16.90;3.80;;;;;;;;;;5028711;28;21127;-74
2021/11/07 15:57:53;;;;;;;18.23;4.00;;;;;;;;;;5028783;28;20030;-74
2021/11/07 16:00:41;;;;;;;22.13;3.72;;;;;;;;;;5032578;28;20021;-75
2021/11/07 16:03:20;;;;;;;14.23;2.42;;;;;;;;;;5031072;28;20389;-74
2021/11/07 16:11:10;;;;;;;14.38;3.08;;;;;;;;;;5031649;28;20040;-76
2021/11/07 16:16:27;;;;;;;10.85;1.75;;;;;;;;;;5029357;28;20538;-75
2021/11/07 16:18:53;;;;;;;13.73;1.58;;;;;;;;;;5027696;28;20061;-75
2021/11/07 16:21:22;;;;;;;8.52;1.58;;;;;;;;;;5028502;28;20024;-74
2021/11/07 16:23:48;;;;;;;12.73;2.40;;;;;;;;;;5028529;28;20025;-74
2021/11/07 16:26:16;;;;;;;12.20;1.75;;;;;;;;;;5025393;28;20121;-76
2021/11/07 16:28:44;;;;;;;9.65;1.20;;;;;;;;;;5029272;28;20026;-75
2021/11/07 16:31:12;;;;;;;9.85;1.42;;;;;;;;;;5030448;28;20027;-75
2021/11/07 16:33:40;;;;;;;13.45;2.80;;;;;;;;;;5029709;28;20025;-75
2021/11/07 16:36:11;;;;;;;17.60;1.70;;;;;;;;;;5029427;28;20017;-75
2021/11/07 16:38:53;;;;;;;8.82;1.83;;;;;;;;;;5029367;28;20292;-75
2021/11/07 16:43:53;;;;;;;16.63;2.33;;;;;;;;;;5027526;28;20030;-75
2021/11/07 16:46:22;;;;;;;15.15;2.03;;;;;;;;;;5028102;28;20427;-74
2021/11/07 16:48:49;;;;;;;16.73;2.07;;;;;;;;;;5026047;28;20030;-75
2021/11/07 16:51:24;;;;;;;18.73;2.80;;;;;;;;;;5031557;28;20044;-75
2021/11/07 16:56:22;;;;;;;12.52;1.90;;;;;;;;;;5027575;28;20034;-74
2021/11/07 17:01:20;;;;;;;9.40;2.40;;;;;;;;;;5028079;28;20083;-74
2021/11/07 17:03:50;;;;;;;13.85;2.17;;;;;;;;;;5021788;28;20020;-74
2021/11/07 17:06:23;;;;;;;22.05;4.35;;;;;;;;;;5020844;28;20056;-74
2021/11/07 17:09:02;;;;;;;18.40;3.13;;;;;;;;;;5027777;28;20014;-74
2021/11/07 17:11:30;;;;;;;24.60;2.97;;;;;;;;;;5026966;28;20076;-75
2021/11/07 17:13:57;;;;;;;13.95;3.20;;;;;;;;;;5026106;28;20056;-74
2021/11/07 17:18:49;;;;;;;12.85;2.08;;;;;;;;;;5027937;28;20037;-74
2021/11/07 17:21:34;;;;;;;12.68;1.70;;;;;;;;;;5025373;28;20479;-75
2021/11/07 17:27:05;;;;;;;13.75;2.45;;;;;;;;;;5033454;28;20393;-75
2021/11/07 17:29:42;;;;;;;14.80;2.15;;;;;;;;;;5023877;28;20496;-75